createdAt,value
2019-02-04T00:02:20.637Z,21.80
2019-02-04T00:04:51.026Z,23.47
2019-02-04T00:07:21.571Z,26.90
2019-02-04T00:09:51.949Z,20.80
2019-02-04T00:12:22.376Z,21.77
2019-02-04T00:14:52.758Z,25.63
2019-02-04T00:17:23.146Z,23.93
2019-02-04T00:19:53.781Z,20.67
2019-02-04T00:22:24.154Z,23.67
2019-02-04T00:24:54.499Z,25.67
2019-02-04T00:27:24.878Z,24.30
2019-02-04T00:29:55.229Z,25.73
2019-02-04T00:32:25.606Z,23.77
2019-02-04T00:34:55.970Z,26.63
2019-02-04T00:37:26.322Z,27.33
2019-02-04T00:39:56.690Z,29.90
2019-02-04T00:42:27.036Z,27.17
2019-02-04T00:44:57.414Z,27.83
2019-02-04T00:47:28.078Z,26.93
2019-02-04T00:49:58.485Z,27.03
2019-02-04T00:52:28.830Z,22.80
2019-02-04T00:54:59.434Z,28.57
2019-02-04T00:57:29.790Z,25.10
2019-02-04T01:00:00.474Z,26.97
2019-02-04T01:02:30.823Z,27.07
2019-02-04T01:05:01.222Z,29.10
2019-02-04T01:07:31.574Z,29.60
2019-02-04T01:10:01.947Z,30.13
2019-02-04T01:12:33.426Z,27.60
2019-02-04T01:15:03.986Z,35.90
2019-02-04T01:17:35.318Z,32.00
2019-02-04T01:20:06.670Z,32.50
2019-02-04T01:22:37.027Z,35.93
2019-02-04T01:25:07.681Z,31.90
2019-02-04T01:27:38.071Z,33.67
2019-02-04T01:30:09.227Z,40.70
2019-02-04T01:32:39.603Z,32.40
2019-02-04T01:35:10.154Z,35.23
2019-02-04T01:37:40.703Z,38.33
2019-02-04T01:40:14.418Z,39.50
2019-02-04T01:42:44.891Z,39.03
2019-02-04T01:45:15.234Z,35.47
2019-02-04T01:47:45.614Z,42.13
2019-02-04T01:50:18.197Z,40.97
2019-02-04T01:52:48.601Z,40.60
2019-02-04T01:55:18.948Z,40.03
2019-02-04T01:57:54.709Z,43.93
2019-02-04T02:00:30.538Z,46.67
2019-02-04T02:03:01.455Z,46.97
2019-02-04T02:05:31.831Z,41.90
2019-02-04T02:08:02.330Z,48.73
2019-02-04T02:10:32.682Z,44.50
2019-02-04T02:13:03.142Z,47.33
2019-02-04T02:15:33.914Z,46.73
2019-02-04T02:18:04.343Z,48.80
2019-02-04T02:20:34.800Z,45.47
2019-02-04T02:23:05.215Z,43.07
2019-02-04T02:25:35.598Z,47.43
2019-02-04T02:28:06.526Z,50.83
2019-02-04T02:30:36.885Z,55.60
2019-02-04T02:33:07.294Z,46.37
2019-02-04T02:35:37.632Z,56.83
2019-02-04T02:38:08.112Z,58.60
2019-02-04T02:40:38.454Z,52.20
2019-02-04T02:43:11.617Z,55.50
2019-02-04T02:45:40.912Z,50.80
2019-02-04T02:48:11.380Z,53.60
2019-02-04T02:50:43.041Z,50.10
2019-02-04T02:53:13.914Z,47.00
2019-02-04T02:55:44.262Z,53.83
2019-02-04T02:58:14.645Z,49.30
2019-02-04T03:00:57.098Z,51.40
2019-02-04T03:03:27.490Z,51.60
2019-02-04T03:05:58.148Z,50.90
2019-02-04T03:08:28.666Z,56.07
2019-02-04T03:10:59.027Z,54.00
2019-02-04T03:13:29.464Z,62.57
2019-02-04T03:15:59.822Z,58.40
2019-02-04T03:18:30.323Z,58.97
2019-02-04T03:21:00.678Z,62.83
2019-02-04T03:23:31.434Z,61.40
2019-02-04T03:26:01.803Z,63.73
2019-02-04T03:28:33.375Z,54.97
2019-02-04T03:31:03.777Z,70.50
2019-02-04T03:33:36.445Z,63.77
2019-02-04T03:36:06.798Z,68.13
2019-02-04T03:38:37.190Z,67.30
2019-02-04T03:41:07.542Z,60.77
2019-02-04T03:43:37.928Z,59.27
2019-02-04T03:46:08.360Z,64.97
2019-02-04T03:48:38.751Z,73.20
2019-02-04T03:51:09.419Z,69.83
2019-02-04T03:53:39.770Z,70.67
2019-02-04T03:56:10.164Z,68.23
2019-02-04T03:58:59.561Z,63.73
2019-02-04T04:01:30.146Z,66.03
2019-02-04T04:04:00.602Z,60.97
2019-02-04T04:06:31.010Z,64.20
2019-02-04T04:09:02.831Z,63.07
2019-02-04T04:11:33.239Z,61.37
2019-02-04T04:14:03.666Z,60.13
2019-02-04T04:16:35.723Z,57.57
2019-02-04T04:19:06.162Z,57.40
2019-02-04T04:21:36.974Z,65.63
2019-02-04T04:24:07.335Z,49.07
2019-02-04T04:26:37.681Z,64.30
2019-02-04T04:29:08.074Z,59.70
2019-02-04T04:31:39.914Z,60.40
2019-02-04T04:34:10.309Z,60.50
2019-02-04T04:36:40.658Z,57.07
2019-02-04T04:39:11.082Z,54.67
2019-02-04T04:41:41.422Z,50.77
2019-02-04T04:44:11.829Z,61.47
2019-02-04T04:46:42.585Z,57.17
2019-02-04T04:49:12.947Z,55.67
2019-02-04T04:51:43.322Z,62.27
2019-02-04T04:54:13.670Z,59.73
2019-02-04T04:56:44.146Z,67.30
2019-02-04T04:59:14.493Z,62.63
2019-02-04T05:01:44.919Z,71.53
2019-02-04T05:04:15.262Z,70.67
2019-02-04T05:06:45.638Z,75.87
2019-02-04T05:09:16.014Z,70.97
2019-02-04T05:11:46.390Z,61.87
2019-02-04T05:14:16.786Z,72.57
2019-02-04T05:16:48.254Z,75.40
2019-02-04T05:19:18.597Z,80.47
2019-02-04T05:21:49.019Z,71.70
2019-02-04T05:24:19.375Z,87.83
2019-02-04T05:26:50.041Z,81.70
2019-02-04T05:29:20.422Z,74.60
2019-02-04T05:31:51.034Z,96.60
2019-02-04T05:34:21.435Z,78.37
2019-02-04T05:36:51.782Z,77.47
2019-02-04T05:39:22.466Z,73.67
2019-02-04T05:41:52.822Z,62.47
2019-02-04T05:44:23.250Z,65.83
2019-02-04T05:46:53.632Z,51.50
2019-02-04T05:49:24.007Z,54.33
2019-02-04T05:51:55.115Z,68.17
2019-02-04T05:54:25.643Z,57.83
2019-02-04T05:56:56.018Z,45.30
2019-02-04T05:59:26.410Z,43.90
2019-02-04T06:01:56.767Z,48.17
2019-02-04T06:04:27.183Z,43.93
2019-02-04T06:06:57.534Z,47.97
2019-02-04T06:09:27.962Z,51.07
2019-02-04T06:11:58.307Z,49.27
2019-02-04T06:14:28.766Z,53.67
2019-02-04T06:16:59.151Z,51.93
2019-02-04T06:19:29.849Z,46.43
2019-02-04T06:22:00.191Z,47.57
2019-02-04T06:24:30.598Z,56.43
2019-02-04T06:27:01.359Z,42.27
2019-02-04T06:29:32.764Z,49.73
2019-02-04T06:32:03.632Z,46.30
2019-02-04T06:34:35.187Z,57.77
2019-02-04T06:37:05.543Z,46.13
2019-02-04T06:39:35.955Z,56.07
2019-02-04T06:42:06.327Z,60.23
2019-02-04T06:44:37.863Z,49.83
2019-02-04T06:47:08.214Z,57.93
2019-02-04T06:49:38.601Z,63.07
2019-02-04T06:52:10.699Z,67.57
2019-02-04T06:54:41.374Z,69.00
2019-02-04T06:57:13.580Z,58.50
2019-02-04T06:59:43.927Z,59.30
2019-02-04T07:02:15.746Z,63.20
2019-02-04T07:04:46.215Z,64.10
2019-02-04T07:07:16.575Z,56.10
2019-02-04T07:09:47.002Z,51.67
2019-02-04T07:12:17.662Z,56.13
2019-02-04T07:14:48.106Z,48.27
2019-02-04T07:17:30.647Z,51.40
2019-02-04T07:20:01.169Z,61.20
2019-02-04T07:22:32.058Z,48.80
2019-02-04T07:25:02.478Z,57.40
2019-02-04T07:27:32.813Z,48.57
2019-02-04T07:30:03.291Z,54.97
2019-02-04T07:32:33.714Z,50.17
2019-02-04T07:35:04.178Z,59.97
2019-02-04T07:37:34.731Z,57.40
2019-02-04T07:40:06.762Z,57.93
2019-02-04T07:42:37.535Z,49.70
2019-02-04T07:45:09.385Z,48.00
2019-02-04T07:47:42.685Z,58.70
2019-02-04T07:50:13.291Z,52.73
2019-02-04T07:52:43.743Z,59.53
2019-02-04T07:55:14.566Z,52.07
2019-02-04T07:57:44.906Z,59.00
2019-02-04T08:00:18.902Z,55.87
2019-02-04T08:02:49.786Z,68.47
2019-02-04T08:05:20.186Z,59.77
2019-02-04T08:07:50.578Z,57.23
2019-02-04T08:10:20.967Z,56.77
2019-02-04T08:13:00.997Z,60.40
2019-02-04T08:15:26.328Z,53.93
2019-02-04T08:17:57.167Z,61.73
2019-02-04T08:20:28.691Z,78.93
2019-02-04T08:22:59.043Z,69.93
2019-02-04T08:25:29.746Z,60.27
2019-02-04T08:28:00.489Z,61.57
2019-02-04T08:30:33.310Z,55.77
2019-02-04T08:33:04.068Z,147.93
2019-02-04T08:35:34.458Z,61.43
2019-02-04T08:38:05.098Z,65.60
2019-02-04T08:40:36.087Z,67.57
2019-02-04T08:43:06.648Z,88.50
2019-02-04T08:45:37.222Z,67.30
2019-02-04T08:48:07.942Z,86.50
2019-02-04T08:50:38.350Z,48.17
2019-02-04T08:53:08.703Z,39.53
2019-02-04T08:55:39.544Z,26.83
2019-02-04T08:58:09.996Z,31.43
2019-02-04T09:00:40.458Z,31.47
2019-02-04T09:03:10.818Z,24.47
2019-02-04T09:05:41.391Z,23.67
2019-02-04T09:08:11.734Z,22.43
2019-02-04T09:10:42.507Z,27.17
2019-02-04T09:13:31.899Z,27.83
2019-02-04T09:16:02.590Z,23.90
2019-02-04T09:18:44.206Z,27.73
2019-02-04T09:21:05.386Z,24.77
2019-02-04T09:23:35.740Z,29.53
2019-02-04T09:26:06.663Z,22.57
2019-02-04T09:28:37.386Z,24.00
2019-02-04T09:31:07.871Z,22.03
2019-02-04T09:33:38.513Z,24.93
2019-02-04T09:36:08.927Z,23.03
2019-02-04T09:38:39.269Z,22.30
2019-02-04T09:41:09.638Z,24.37
2019-02-04T09:43:40.124Z,20.00
2019-02-04T09:46:10.851Z,22.77
2019-02-04T09:48:41.201Z,18.60
2019-02-04T09:51:11.588Z,18.07
2019-02-04T09:53:41.970Z,25.07
2019-02-04T09:56:12.318Z,19.03
2019-02-04T09:58:42.700Z,18.43
2019-02-04T10:01:13.570Z,19.50
2019-02-04T10:03:44.749Z,21.17
2019-02-04T10:06:15.106Z,17.93
2019-02-04T10:08:45.502Z,21.00
2019-02-04T10:11:17.570Z,20.13
2019-02-04T10:13:48.915Z,17.53
2019-02-04T10:16:19.357Z,89.70
2019-02-04T10:18:51.236Z,92.03
2019-02-04T10:21:21.827Z,30.20
2019-02-04T10:23:52.206Z,58.03
2019-02-04T10:26:34.933Z,19.03
2019-02-04T10:29:05.366Z,21.73
2019-02-04T10:31:35.758Z,46.67
2019-02-04T10:34:08.312Z,28.63
2019-02-04T10:36:38.935Z,15.33
2019-02-04T10:39:10.518Z,37.77
2019-02-04T10:41:41.600Z,25.87
2019-02-04T10:44:12.363Z,25.50
2019-02-04T10:46:42.714Z,16.27
2019-02-04T10:49:16.264Z,19.13
2019-02-04T10:51:46.939Z,13.50
2019-02-04T10:54:17.315Z,14.60
2019-02-04T10:56:47.666Z,15.50
2019-02-04T10:59:19.978Z,13.43
2019-02-04T11:01:51.857Z,14.30
2019-02-04T11:04:24.106Z,14.30
2019-02-04T11:07:05.832Z,11.40
2019-02-04T11:09:36.221Z,13.07
2019-02-04T11:12:07.731Z,13.67
2019-02-04T11:14:38.746Z,10.17
2019-02-04T11:17:09.218Z,12.43
2019-02-04T11:19:39.901Z,12.23
2019-02-04T11:22:11.362Z,15.53
2019-02-04T11:24:41.667Z,13.03
2019-02-04T11:27:12.476Z,9.43
2019-02-04T11:29:42.850Z,15.87
2019-02-04T11:32:14.048Z,10.10
2019-02-04T11:34:44.388Z,16.23
2019-02-04T11:37:15.083Z,10.90
2019-02-04T11:39:46.051Z,12.40
2019-02-04T11:42:16.494Z,15.50
2019-02-04T11:44:46.850Z,12.13
2019-02-04T11:47:18.229Z,7.03
2019-02-04T11:49:48.583Z,9.67
2019-02-04T11:52:21.527Z,8.77
2019-02-04T11:54:53.075Z,9.73
2019-02-04T11:57:23.458Z,9.53
2019-02-04T11:59:53.835Z,8.13
2019-02-04T12:02:34.304Z,8.70
2019-02-04T12:04:56.186Z,8.90
2019-02-04T12:07:26.466Z,11.47
2019-02-04T12:09:56.813Z,5.47
2019-02-04T12:12:30.038Z,7.27
2019-02-04T12:15:00.378Z,8.03
2019-02-04T12:17:31.141Z,9.97
2019-02-04T12:20:01.564Z,7.70
2019-02-04T12:22:31.899Z,4.47
2019-02-04T12:25:05.450Z,6.07
2019-02-04T12:27:35.950Z,6.17
2019-02-04T12:30:09.070Z,6.00
2019-02-04T12:32:40.014Z,6.67
2019-02-04T12:35:11.851Z,8.03
2019-02-04T12:37:42.615Z,6.93
2019-02-04T12:40:13.603Z,5.83
2019-02-04T12:42:44.414Z,7.13
2019-02-04T12:45:18.706Z,8.07
2019-02-04T12:47:49.529Z,6.07
2019-02-04T12:50:19.858Z,5.73
2019-02-04T12:52:50.295Z,7.03
2019-02-04T12:55:22.575Z,6.10
2019-02-04T12:57:53.533Z,7.13
2019-02-04T13:00:25.892Z,6.40
2019-02-04T13:02:56.589Z,6.40
2019-02-04T13:05:29.915Z,7.53
2019-02-04T13:08:11.983Z,6.53
2019-02-04T13:10:42.719Z,6.77
2019-02-04T13:13:15.674Z,7.57
2019-02-04T13:15:46.128Z,8.80
2019-02-04T13:18:16.724Z,4.63
2019-02-04T13:20:47.514Z,6.37
2019-02-04T13:23:19.266Z,5.97
2019-02-04T13:25:49.605Z,10.80
2019-02-04T13:28:23.563Z,7.67
2019-02-04T13:30:54.871Z,6.03
2019-02-04T13:33:25.494Z,9.67
2019-02-04T13:35:55.810Z,5.07
2019-02-04T13:38:26.280Z,7.60
2019-02-04T13:41:07.585Z,7.80
2019-02-04T13:43:30.203Z,7.20
2019-02-04T13:46:00.941Z,7.73
2019-02-04T13:48:31.314Z,5.50
2019-02-04T13:51:01.696Z,5.50
2019-02-04T13:53:32.237Z,4.57
2019-02-04T13:56:02.569Z,6.03
2019-02-04T13:58:35.181Z,7.30
2019-02-04T14:01:05.538Z,6.80
2019-02-04T14:03:36.273Z,4.57
2019-02-04T14:06:09.398Z,6.13
2019-02-04T14:08:40.098Z,6.13
2019-02-04T14:11:12.489Z,6.37
2019-02-04T14:13:44.352Z,8.80
2019-02-04T14:16:14.762Z,7.57
2019-02-04T14:18:45.293Z,5.83
2019-02-04T14:21:16.160Z,7.00
2019-02-04T14:23:46.966Z,9.50
2019-02-04T14:26:17.424Z,8.07
2019-02-04T14:28:48.057Z,7.53
2019-02-04T14:31:18.588Z,8.23
2019-02-04T14:33:49.014Z,9.60
2019-02-04T14:36:19.655Z,8.80
2019-02-04T14:38:50.454Z,12.40
2019-02-04T14:41:20.910Z,11.03
2019-02-04T14:44:01.962Z,11.53
2019-02-04T14:46:44.845Z,12.30
2019-02-04T14:49:44.215Z,17.33
2019-02-04T14:52:37.886Z,12.13
2019-02-04T14:56:00.446Z,13.00
2019-02-04T14:59:06.038Z,12.17
2019-02-04T15:02:28.920Z,13.33
2019-02-04T15:05:20.765Z,12.50
2019-02-04T15:08:33.700Z,14.97
2019-02-04T15:11:29.606Z,17.10
2019-02-04T15:14:29.853Z,15.83
2019-02-04T15:17:14.619Z,15.00
2019-02-04T15:20:19.658Z,17.07
2019-02-04T15:23:15.670Z,14.23
2019-02-04T15:26:32.278Z,17.93
2019-02-04T15:29:19.808Z,16.33
2019-02-04T15:32:29.043Z,18.03
2019-02-04T15:35:34.297Z,17.47
2019-02-04T15:38:35.855Z,21.07
2019-02-04T15:41:32.885Z,23.50
2019-02-04T15:44:36.693Z,16.70
2019-02-04T15:47:36.910Z,18.83
2019-02-04T15:50:37.606Z,18.27
2019-02-04T15:53:08.037Z,18.97
2019-02-04T15:55:40.098Z,18.37
2019-02-04T15:58:11.128Z,20.40
2019-02-04T16:00:43.585Z,18.77
2019-02-04T16:03:15.367Z,19.27
2019-02-04T16:05:45.825Z,18.60
2019-02-04T16:08:16.295Z,19.13
2019-02-04T16:10:47.057Z,20.73
2019-02-04T16:13:19.187Z,18.87
2019-02-04T16:15:50.262Z,18.50
2019-02-04T16:18:20.895Z,20.37
2019-02-04T16:20:51.645Z,22.50
2019-02-04T16:23:22.570Z,20.53
2019-02-04T16:25:54.431Z,26.13
2019-02-04T16:28:25.061Z,21.80
2019-02-04T16:30:55.484Z,20.70
2019-02-04T16:33:25.833Z,24.70
2019-02-04T16:35:56.494Z,24.03
2019-02-04T16:38:27.872Z,19.00
2019-02-04T16:40:58.639Z,23.00
2019-02-04T16:43:29.334Z,25.13
2019-02-04T16:45:59.686Z,24.43
2019-02-04T16:48:41.774Z,24.87
2019-02-04T16:51:12.132Z,26.43
2019-02-04T16:53:42.715Z,27.77
2019-02-04T16:56:13.054Z,31.53
2019-02-04T16:58:43.482Z,25.83
2019-02-04T17:01:13.841Z,27.70
2019-02-04T17:03:44.250Z,27.17
2019-02-04T17:06:14.858Z,31.43
2019-02-04T17:08:45.294Z,29.07
2019-02-04T17:11:15.649Z,30.33
2019-02-04T17:13:46.062Z,28.27
2019-02-04T17:16:16.454Z,26.83
2019-02-04T17:18:46.879Z,29.17
2019-02-04T17:21:17.242Z,24.53
2019-02-04T17:23:47.614Z,29.27
2019-02-04T17:26:18.022Z,26.53
2019-02-04T17:28:48.405Z,29.50
2019-02-04T17:31:19.931Z,31.27
2019-02-04T17:33:51.824Z,27.87
2019-02-04T17:36:23.291Z,28.13
2019-02-04T17:38:54.108Z,31.00
2019-02-04T17:41:24.453Z,31.10
2019-02-04T17:43:54.942Z,34.67
2019-02-04T17:46:25.791Z,31.70
2019-02-04T17:48:56.245Z,31.57
2019-02-04T17:51:26.594Z,28.83
2019-02-04T17:53:56.978Z,29.63
2019-02-04T17:56:27.326Z,28.40
2019-02-04T17:58:57.738Z,32.20
2019-02-04T18:01:28.073Z,31.83
2019-02-04T18:03:58.536Z,29.20
2019-02-04T18:06:31.574Z,31.17
2019-02-04T18:09:00.987Z,29.03
2019-02-04T18:11:31.326Z,28.40
2019-02-04T18:14:01.715Z,28.67
2019-02-04T18:16:32.088Z,28.43
2019-02-04T18:19:02.520Z,26.87
2019-02-04T18:21:32.994Z,28.53
2019-02-04T18:24:03.353Z,28.20
2019-02-04T18:26:33.822Z,28.73
2019-02-04T18:29:04.550Z,27.33
2019-02-04T18:31:34.975Z,26.70
2019-02-04T18:34:05.446Z,27.40
2019-02-04T18:36:35.815Z,28.37
2019-02-04T18:39:09.612Z,25.30
2019-02-04T18:41:40.440Z,30.33
2019-02-04T18:44:10.787Z,27.70
2019-02-04T18:46:41.527Z,27.40
2019-02-04T18:49:13.360Z,27.20
2019-02-04T18:51:43.751Z,25.20
2019-02-04T18:54:14.098Z,20.97
2019-02-04T18:56:44.502Z,25.93
2019-02-04T18:59:14.861Z,23.20
2019-02-04T19:01:45.286Z,27.80
2019-02-04T19:04:15.918Z,26.73
2019-02-04T19:06:47.800Z,24.47
2019-02-04T19:09:18.255Z,28.13
2019-02-04T19:11:48.599Z,21.33
2019-02-04T19:14:19.022Z,25.70
2019-02-04T19:16:49.847Z,27.73
2019-02-04T19:19:21.452Z,22.83
2019-02-04T19:21:52.235Z,23.13
2019-02-04T19:24:22.697Z,26.23
2019-02-04T19:26:54.076Z,27.93
2019-02-04T19:29:25.707Z,21.07
2019-02-04T19:31:56.063Z,28.90
2019-02-04T19:34:26.438Z,25.50
2019-02-04T19:36:56.791Z,24.10
2019-02-04T19:39:27.182Z,24.37
2019-02-04T19:41:57.530Z,28.27
2019-02-04T19:44:28.573Z,21.70
2019-02-04T19:46:58.954Z,25.40
2019-02-04T19:49:29.727Z,25.77
2019-02-04T19:52:00.069Z,21.43
2019-02-04T19:54:31.247Z,21.87
2019-02-04T19:57:01.914Z,21.90
2019-02-04T19:59:32.302Z,24.33
2019-02-04T20:02:02.662Z,25.07
2019-02-04T20:04:33.042Z,22.17
2019-02-04T20:07:04.464Z,25.97
2019-02-04T20:09:34.866Z,24.97
2019-02-04T20:12:06.270Z,25.23
2019-02-04T20:14:36.726Z,22.30
2019-02-04T20:17:07.178Z,24.20
2019-02-04T20:19:37.741Z,25.47
2019-02-04T20:22:08.193Z,26.03
2019-02-04T20:24:38.975Z,25.60
2019-02-04T20:27:09.322Z,25.63
2019-02-04T20:29:39.682Z,26.77
2019-02-04T20:32:10.110Z,22.67
2019-02-04T20:34:40.467Z,22.03
2019-02-04T20:37:10.855Z,24.10
2019-02-04T20:39:41.252Z,25.43
2019-02-04T20:42:11.626Z,22.43
2019-02-04T20:44:41.970Z,22.97
2019-02-04T20:47:12.370Z,21.10
2019-02-04T20:49:42.755Z,20.70
2019-02-04T20:52:13.214Z,24.33
2019-02-04T20:54:45.032Z,22.53
2019-02-04T20:57:15.650Z,22.83
2019-02-04T20:59:45.998Z,22.20
2019-02-04T21:02:16.431Z,21.23
2019-02-04T21:04:46.781Z,20.90
2019-02-04T21:07:17.542Z,21.57
2019-02-04T21:09:47.874Z,25.37
2019-02-04T21:12:18.337Z,24.33
2019-02-04T21:14:49.750Z,22.90
2019-02-04T21:17:20.178Z,22.57
2019-02-04T21:19:50.826Z,23.57
2019-02-04T21:22:22.348Z,19.80
2019-02-04T21:24:56.388Z,22.03
2019-02-04T21:27:24.723Z,23.90
2019-02-04T21:30:25.355Z,20.90
2019-02-04T21:32:55.777Z,19.10
2019-02-04T21:35:27.189Z,22.33
2019-02-04T21:37:57.554Z,20.50
2019-02-04T21:40:28.328Z,23.73
2019-02-04T21:42:58.676Z,22.13
2019-02-04T21:45:29.486Z,25.93
2019-02-04T21:47:59.822Z,21.00
2019-02-04T21:50:30.315Z,24.20
2019-02-04T21:53:00.652Z,24.37
2019-02-04T21:55:31.035Z,23.97
2019-02-04T21:58:01.379Z,21.03
2019-02-04T22:00:36.915Z,22.07
2019-02-04T22:03:07.454Z,20.83
2019-02-04T22:05:37.954Z,22.67
2019-02-04T22:08:08.514Z,21.37
2019-02-04T22:10:38.997Z,21.87
2019-02-04T22:13:09.337Z,23.50
2019-02-04T22:15:40.206Z,20.67
2019-02-04T22:18:10.570Z,24.77
2019-02-04T22:20:41.673Z,20.03
2019-02-04T22:23:12.103Z,21.00
2019-02-04T22:25:42.782Z,19.17
2019-02-04T22:28:13.130Z,18.53
2019-02-04T22:30:43.933Z,20.00
2019-02-04T22:33:14.291Z,18.47
2019-02-04T22:35:44.863Z,19.00
2019-02-04T22:38:15.202Z,18.73
2019-02-04T22:40:45.579Z,23.10
2019-02-04T22:43:15.950Z,15.67
2019-02-04T22:45:46.297Z,19.17
2019-02-04T22:48:16.674Z,19.40
2019-02-04T22:50:47.027Z,20.00
2019-02-04T22:53:17.398Z,15.67
2019-02-04T22:55:47.750Z,19.77
2019-02-04T22:58:18.180Z,20.17
2019-02-04T23:00:58.026Z,18.17
2019-02-04T23:03:29.010Z,19.83
2019-02-04T23:05:59.346Z,15.87
2019-02-04T23:08:29.701Z,15.57
2019-02-04T23:11:00.063Z,18.37
2019-02-04T23:13:30.402Z,16.03
2019-02-04T23:16:01.955Z,18.60
2019-02-04T23:18:32.313Z,14.07
2019-02-04T23:21:02.778Z,15.20
2019-02-04T23:23:33.462Z,17.47
2019-02-04T23:26:03.910Z,15.63
2019-02-04T23:28:34.259Z,16.40
2019-02-04T23:31:05.055Z,18.93
2019-02-04T23:33:35.381Z,19.33
2019-02-04T23:36:06.837Z,17.60
2019-02-04T23:38:37.179Z,17.77
2019-02-04T23:41:07.759Z,23.57
2019-02-04T23:43:38.138Z,18.17
2019-02-04T23:46:08.486Z,16.37
2019-02-04T23:48:38.861Z,21.03
2019-02-04T23:51:09.196Z,17.47
2019-02-04T23:53:39.664Z,13.90
2019-02-04T23:56:09.952Z,15.50
2019-02-04T23:58:40.378Z,14.17
